createdAt,value
2019-03-06T00:02:22.710Z,13.17
2019-03-06T00:04:51.632Z,15.17
2019-03-06T00:07:20.725Z,17.03
2019-03-06T00:09:49.667Z,18.47
2019-03-06T00:12:24.036Z,15.87
2019-03-06T00:15:22.882Z,15.77
2019-03-06T00:17:57.650Z,13.80
2019-03-06T00:20:33.549Z,15.07
2019-03-06T00:23:12.552Z,21.17
2019-03-06T00:25:41.729Z,17.73
2019-03-06T00:28:11.080Z,14.70
2019-03-06T00:30:45.336Z,17.80
2019-03-06T00:33:15.636Z,18.83
2019-03-06T00:35:46.148Z,17.87
2019-03-06T00:38:17.692Z,16.13
2019-03-06T00:41:06.579Z,15.23
2019-03-06T00:43:35.533Z,18.93
2019-03-06T00:46:04.514Z,17.87
2019-03-06T00:48:33.448Z,16.23
2019-03-06T00:51:02.379Z,17.97
2019-03-06T00:53:31.579Z,16.27
2019-03-06T00:56:03.076Z,16.83
2019-03-06T00:58:32.034Z,21.17
2019-03-06T01:01:02.478Z,17.23
2019-03-06T01:03:33.944Z,18.33
2019-03-06T01:06:02.209Z,15.87
2019-03-06T01:08:31.153Z,16.60
2019-03-06T01:11:01.811Z,14.07
2019-03-06T01:13:30.855Z,19.50
2019-03-06T01:16:01.190Z,13.27
2019-03-06T01:18:30.198Z,17.70
2019-03-06T01:20:59.240Z,16.87
2019-03-06T01:23:28.556Z,17.07
2019-03-06T01:26:03.809Z,21.43
2019-03-06T01:28:33.780Z,23.70
2019-03-06T01:31:03.888Z,17.27
2019-03-06T01:33:52.316Z,17.77
2019-03-06T01:36:22.754Z,17.67
2019-03-06T01:38:58.892Z,18.17
2019-03-06T01:41:32.370Z,20.37
2019-03-06T01:44:09.292Z,19.73
2019-03-06T01:46:38.451Z,20.30
2019-03-06T01:49:10.466Z,18.30
2019-03-06T01:51:40.612Z,22.17
2019-03-06T01:54:14.038Z,22.97
2019-03-06T01:56:42.954Z,21.83
2019-03-06T01:59:11.693Z,22.40
2019-03-06T02:01:41.221Z,24.57
2019-03-06T02:04:12.556Z,21.60
2019-03-06T02:06:42.670Z,20.43
2019-03-06T02:09:14.788Z,21.70
2019-03-06T02:11:46.376Z,21.30
2019-03-06T02:14:15.320Z,22.70
2019-03-06T02:16:49.058Z,21.43
2019-03-06T02:19:17.563Z,23.50
2019-03-06T02:21:50.408Z,23.17
2019-03-06T02:24:19.270Z,22.20
2019-03-06T02:26:48.081Z,23.00
2019-03-06T02:29:18.124Z,23.80
2019-03-06T02:31:46.960Z,21.63
2019-03-06T02:34:15.877Z,23.47
2019-03-06T02:36:44.883Z,24.17
2019-03-06T02:39:16.630Z,23.27
2019-03-06T02:41:45.482Z,27.00
2019-03-06T02:44:14.309Z,29.97
2019-03-06T02:46:43.114Z,22.80
2019-03-06T02:49:11.885Z,22.60
2019-03-06T02:51:40.732Z,25.33
2019-03-06T02:54:09.572Z,26.20
2019-03-06T02:56:38.467Z,23.20
2019-03-06T02:59:09.095Z,24.77
2019-03-06T03:01:44.967Z,28.17
2019-03-06T03:04:21.509Z,27.90
2019-03-06T03:06:51.901Z,22.57
2019-03-06T03:09:21.718Z,22.33
2019-03-06T03:11:50.714Z,28.27
2019-03-06T03:14:19.459Z,25.87
2019-03-06T03:16:51.112Z,27.70
2019-03-06T03:19:20.097Z,30.43
2019-03-06T03:21:48.901Z,29.87
2019-03-06T03:24:17.983Z,30.57
2019-03-06T03:26:52.220Z,27.53
2019-03-06T03:29:21.261Z,28.73
2019-03-06T03:31:50.240Z,31.67
2019-03-06T03:34:18.945Z,29.73
2019-03-06T03:36:47.926Z,27.13
2019-03-06T03:39:16.601Z,25.93
2019-03-06T03:41:45.326Z,29.27
2019-03-06T03:44:14.448Z,25.00
2019-03-06T03:46:43.270Z,28.23
2019-03-06T03:49:12.098Z,28.83
2019-03-06T03:51:40.775Z,30.10
2019-03-06T03:54:09.593Z,27.23
2019-03-06T03:56:38.694Z,27.50
2019-03-06T03:59:07.390Z,26.10
2019-03-06T04:01:36.274Z,25.77
2019-03-06T04:04:08.157Z,30.80
2019-03-06T04:06:46.034Z,35.63
2019-03-06T04:09:26.081Z,32.03
2019-03-06T04:11:52.469Z,20.80
2019-03-06T04:14:21.323Z,15.80
2019-03-06T04:16:52.858Z,12.30
2019-03-06T04:19:23.589Z,9.07
2019-03-06T04:21:52.642Z,6.27
2019-03-06T04:24:21.652Z,7.93
2019-03-06T04:26:53.928Z,6.30
2019-03-06T04:29:25.762Z,7.97
2019-03-06T04:32:02.399Z,10.80
2019-03-06T04:34:26.453Z,10.90
2019-03-06T04:36:55.627Z,13.27
2019-03-06T04:39:26.097Z,17.73
2019-03-06T04:41:55.378Z,16.90
2019-03-06T04:44:24.345Z,18.57
2019-03-06T04:46:56.439Z,19.87
2019-03-06T04:49:27.508Z,20.00
2019-03-06T04:52:01.926Z,19.63
2019-03-06T04:54:32.034Z,16.97
2019-03-06T04:57:00.908Z,18.03
2019-03-06T04:59:59.419Z,19.23
2019-03-06T05:03:02.265Z,19.33
2019-03-06T05:05:17.711Z,20.50
2019-03-06T05:07:54.792Z,17.47
2019-03-06T05:10:34.413Z,17.77
2019-03-06T05:13:10.919Z,18.93
2019-03-06T05:16:01.836Z,17.43
2019-03-06T05:18:56.428Z,19.43
2019-03-06T05:21:17.802Z,17.33
2019-03-06T05:27:27.152Z,14.50
2019-03-06T05:34:25.018Z,16.67
2019-03-06T05:36:48.002Z,15.43
2019-03-06T05:39:34.177Z,17.27
2019-03-06T05:42:45.365Z,15.13
2019-03-06T05:44:54.954Z,16.13
2019-03-06T05:47:23.795Z,17.40
2019-03-06T05:50:06.888Z,16.67
2019-03-06T05:52:37.239Z,16.70
2019-03-06T05:55:13.354Z,8.43
2019-03-06T05:58:07.101Z,10.53
2019-03-06T06:00:55.636Z,11.63
2019-03-06T06:03:21.421Z,8.33
2019-03-06T06:05:50.126Z,8.23
2019-03-06T06:08:20.567Z,7.13
2019-03-06T06:10:56.128Z,7.33
2019-03-06T06:13:28.379Z,6.80
2019-03-06T06:15:56.584Z,5.70
2019-03-06T06:18:25.336Z,5.67
2019-03-06T06:20:55.643Z,6.00
2019-03-06T06:23:41.949Z,5.77
2019-03-06T06:26:13.045Z,7.47
2019-03-06T06:28:43.300Z,15.10
2019-03-06T06:31:14.552Z,12.27
2019-03-06T06:33:43.570Z,16.03
2019-03-06T06:36:17.897Z,15.57
2019-03-06T06:38:50.452Z,49.43
2019-03-06T06:41:18.930Z,41.17
2019-03-06T06:43:50.606Z,27.73
2019-03-06T06:46:19.340Z,28.10
2019-03-06T06:48:48.064Z,49.50
2019-03-06T06:51:28.064Z,35.40
2019-03-06T06:54:08.233Z,30.93
2019-03-06T06:57:17.745Z,25.80
2019-03-06T07:00:07.810Z,21.17
2019-03-06T07:02:58.868Z,23.27
2019-03-06T07:05:29.308Z,20.60
2019-03-06T07:08:05.636Z,28.03
2019-03-06T07:10:39.182Z,21.60
2019-03-06T07:13:09.874Z,20.33
2019-03-06T07:15:46.097Z,26.83
2019-03-06T07:18:22.266Z,22.13
2019-03-06T07:20:55.656Z,40.57
2019-03-06T07:23:26.166Z,45.10
2019-03-06T07:26:03.720Z,82.50
2019-03-06T07:28:37.198Z,47.43
2019-03-06T07:31:27.552Z,34.83
2019-03-06T07:34:04.156Z,29.27
2019-03-06T07:36:46.561Z,31.73
2019-03-06T07:39:22.350Z,43.93
2019-03-06T07:42:12.202Z,38.50
2019-03-06T07:44:53.496Z,56.50
2019-03-06T07:47:40.372Z,35.43
2019-03-06T07:50:16.690Z,28.87
2019-03-06T07:52:52.116Z,32.87
2019-03-06T07:55:22.235Z,28.47
2019-03-06T07:58:16.370Z,31.17
2019-03-06T08:00:45.120Z,30.40
2019-03-06T08:03:16.400Z,31.77
2019-03-06T08:05:45.345Z,32.43
2019-03-06T08:08:14.308Z,29.30
2019-03-06T08:10:45.830Z,30.80
2019-03-06T08:13:16.295Z,33.87
2019-03-06T08:15:46.837Z,28.03
2019-03-06T08:18:20.137Z,33.73
2019-03-06T08:21:02.496Z,40.43
2019-03-06T08:23:41.872Z,40.87
2019-03-06T08:26:15.247Z,38.47
2019-03-06T08:28:49.355Z,43.70
2019-03-06T08:31:32.068Z,44.17
2019-03-06T08:34:14.512Z,40.90
2019-03-06T08:36:55.079Z,39.23
2019-03-06T08:40:01.718Z,37.57
2019-03-06T08:42:40.295Z,38.37
2019-03-06T08:45:12.392Z,36.33
2019-03-06T08:47:52.149Z,38.27
2019-03-06T08:50:40.923Z,41.80
2019-03-06T08:53:25.996Z,43.97
2019-03-06T08:56:12.580Z,41.00
2019-03-06T08:58:42.719Z,44.30
2019-03-06T09:01:40.816Z,41.63
2019-03-06T09:04:13.879Z,37.37
2019-03-06T09:06:44.360Z,47.63
2019-03-06T09:09:24.514Z,35.70
2019-03-06T09:12:11.443Z,44.47
2019-03-06T09:15:04.669Z,40.00
2019-03-06T09:18:22.907Z,34.57
2019-03-06T09:20:57.743Z,40.67
2019-03-06T09:23:56.114Z,38.53
2019-03-06T09:27:03.261Z,38.70
2019-03-06T09:30:02.573Z,43.50
2019-03-06T09:33:16.899Z,41.57
2019-03-06T09:36:04.510Z,44.87
2019-03-06T09:41:52.240Z,38.97
2019-03-06T09:44:42.480Z,44.30
2019-03-06T09:47:18.103Z,47.10
2019-03-06T09:50:00.322Z,44.07
2019-03-06T09:52:46.241Z,47.83
2019-03-06T09:55:28.417Z,46.03
2019-03-06T09:58:02.029Z,39.60
2019-03-06T10:00:50.261Z,38.63
2019-03-06T10:03:36.901Z,37.77
2019-03-06T10:06:27.022Z,37.00
2019-03-06T10:09:15.023Z,37.13
2019-03-06T10:12:10.559Z,36.97
2019-03-06T10:15:00.008Z,37.53
2019-03-06T10:17:51.399Z,36.40
2019-03-06T10:20:25.609Z,36.53
2019-03-06T10:22:54.846Z,34.50
2019-03-06T10:25:44.265Z,40.93
2019-03-06T10:28:27.491Z,36.87
2019-03-06T10:30:49.682Z,37.70
2019-03-06T10:33:35.655Z,34.67
2019-03-06T10:36:29.485Z,31.70
2019-03-06T10:39:47.643Z,33.67
2019-03-06T10:42:21.843Z,33.20
2019-03-06T10:45:04.445Z,36.23
2019-03-06T10:47:56.815Z,39.53
2019-03-06T10:57:06.321Z,35.27
2019-03-06T10:59:47.026Z,39.83
2019-03-06T11:02:24.639Z,38.00
2019-03-06T11:04:59.099Z,38.67
2019-03-06T11:07:29.650Z,34.87
2019-03-06T11:09:59.103Z,36.93
2019-03-06T11:12:28.618Z,30.53
2019-03-06T11:15:06.560Z,35.40
2019-03-06T11:18:21.335Z,32.83
2019-03-06T11:20:48.119Z,39.17
2019-03-06T11:23:59.607Z,33.50
2019-03-06T11:26:44.630Z,40.00
2019-03-06T11:29:34.994Z,34.73
2019-03-06T11:32:07.780Z,32.73
2019-03-06T11:34:39.776Z,32.80
2019-03-06T11:37:17.367Z,36.73
2019-03-06T11:39:48.747Z,33.50
2019-03-06T11:42:18.640Z,33.70
2019-03-06T11:44:52.565Z,36.57
2019-03-06T11:50:40.801Z,33.50
2019-03-06T11:53:07.680Z,32.30
2019-03-06T11:55:39.002Z,30.00
2019-03-06T11:58:34.138Z,29.37
2019-03-06T12:01:22.927Z,29.40
2019-03-06T12:03:47.977Z,33.23
2019-03-06T12:09:39.233Z,31.83
2019-03-06T12:12:27.987Z,30.80
2019-03-06T12:15:30.269Z,35.43
2019-03-06T12:18:03.113Z,29.90
2019-03-06T12:20:33.543Z,25.47
2019-03-06T12:23:08.902Z,26.10
2019-03-06T12:26:41.839Z,24.97
2019-03-06T12:28:47.623Z,26.17
2019-03-06T12:31:18.173Z,19.93
2019-03-06T12:36:52.598Z,17.77
2019-03-06T12:39:25.863Z,18.33
2019-03-06T12:42:13.972Z,16.03
2019-03-06T12:44:40.489Z,15.03
2019-03-06T12:47:17.039Z,13.90
2019-03-06T12:50:05.441Z,16.73
2019-03-06T12:52:44.175Z,13.23
2019-03-06T12:55:16.141Z,12.27
2019-03-06T12:57:59.286Z,11.30
2019-03-06T13:00:43.066Z,13.37
2019-03-06T13:03:36.024Z,11.93
2019-03-06T13:13:39.465Z,13.03
2019-03-06T13:19:16.604Z,11.17
2019-03-06T13:19:45.490Z,12.27
2019-03-06T13:59:44.410Z,14.98
2019-03-06T14:25:23.793Z,10.43
2019-03-06T14:34:56.887Z,10.58
2019-03-06T14:44:29.971Z,12.33
2019-03-06T14:59:33.262Z,21.17
2019-03-06T15:02:12.649Z,13.90
2019-03-06T15:04:52.122Z,15.40
2019-03-06T15:13:35.728Z,15.40
2019-03-06T15:16:17.326Z,12.90
2019-03-06T15:22:17.013Z,12.97
2019-03-06T15:24:49.655Z,11.87
2019-03-06T15:27:25.323Z,12.73
2019-03-06T15:29:57.672Z,18.00
2019-03-06T15:32:31.780Z,13.87
2019-03-06T15:35:29.662Z,13.00
2019-03-06T15:54:43.502Z,24.53
2019-03-06T16:00:59.963Z,27.53
2019-03-06T16:04:21.870Z,21.83
2019-03-06T16:08:48.107Z,21.93
2019-03-06T16:09:45.135Z,18.17
2019-03-06T16:12:18.117Z,21.13
2019-03-06T16:14:52.436Z,19.77
2019-03-06T16:17:21.483Z,19.87
2019-03-06T16:19:56.360Z,25.27
2019-03-06T16:22:31.235Z,22.77
2019-03-06T16:25:12.576Z,20.80
2019-03-06T16:27:41.770Z,34.03
2019-03-06T16:30:24.824Z,24.93
2019-03-06T16:32:56.914Z,25.90
2019-03-06T16:35:26.381Z,24.80
2019-03-06T16:38:07.627Z,21.13
2019-03-06T16:40:48.053Z,22.30
2019-03-06T16:43:17.306Z,27.10
2019-03-06T16:45:46.292Z,29.20
2019-03-06T16:48:15.209Z,29.30
2019-03-06T16:50:44.327Z,27.50
2019-03-06T16:53:13.339Z,34.23
2019-03-06T16:55:42.150Z,41.00
2019-03-06T16:58:17.416Z,31.97
2019-03-06T17:00:46.333Z,30.60
2019-03-06T17:03:15.558Z,32.00
2019-03-06T17:05:46.572Z,32.90
2019-03-06T17:08:17.031Z,30.03
2019-03-06T17:10:45.775Z,42.43
2019-03-06T17:13:15.228Z,52.63
2019-03-06T17:15:44.112Z,46.50
2019-03-06T17:18:13.546Z,60.10
2019-03-06T17:20:44.434Z,49.60
2019-03-06T17:23:19.220Z,54.67
2019-03-06T17:25:52.550Z,69.13
2019-03-06T17:28:21.460Z,51.70
2019-03-06T17:30:50.727Z,48.13
2019-03-06T17:33:20.179Z,56.23
2019-03-06T17:35:49.119Z,56.10
2019-03-06T17:38:19.454Z,52.47
2019-03-06T17:40:51.493Z,51.90
2019-03-06T17:43:21.624Z,46.77
2019-03-06T17:45:52.190Z,56.00
2019-03-06T17:48:21.147Z,53.20
2019-03-06T17:50:50.334Z,48.73
2019-03-06T17:53:19.373Z,56.43
2019-03-06T17:55:48.237Z,60.50
2019-03-06T17:58:23.645Z,59.53
2019-03-06T18:00:57.023Z,62.87
2019-03-06T18:03:43.359Z,53.73
2019-03-06T18:06:35.233Z,62.93
2019-03-06T18:09:08.851Z,70.70
2019-03-06T18:11:53.485Z,63.23
2019-03-06T18:14:24.523Z,67.13
2019-03-06T18:16:54.540Z,72.00
2019-03-06T18:19:31.912Z,70.73
2019-03-06T18:22:29.215Z,69.07
2019-03-06T18:24:56.552Z,69.33
2019-03-06T18:27:44.597Z,65.97
2019-03-06T18:30:14.720Z,45.13
2019-03-06T18:32:48.269Z,68.43
2019-03-06T18:35:20.638Z,69.03
2019-03-06T18:37:52.407Z,69.17
2019-03-06T18:40:25.155Z,51.43
2019-03-06T18:46:18.568Z,61.40
2019-03-06T18:48:48.963Z,72.75
2019-03-06T18:51:25.074Z,73.10
2019-03-06T18:53:57.054Z,68.73
2019-03-06T18:56:31.665Z,66.07
2019-03-06T18:59:02.285Z,64.00
2019-03-06T19:01:35.452Z,69.07
2019-03-06T19:07:54.415Z,66.73
2019-03-06T19:22:21.402Z,30.03
2019-03-06T19:34:21.696Z,34.20
2019-03-06T19:51:22.977Z,52.33
2019-03-06T19:53:53.269Z,35.80
2019-03-06T19:56:31.887Z,62.30
2019-03-06T19:59:09.197Z,63.13
2019-03-06T20:01:44.305Z,62.77
2019-03-06T20:04:33.110Z,64.30
2019-03-06T20:07:15.789Z,64.40
2019-03-06T20:09:53.181Z,43.73
2019-03-06T20:13:06.176Z,33.17
2019-03-06T20:15:47.007Z,61.47
2019-03-06T20:21:27.974Z,59.77
2019-03-06T20:24:22.679Z,54.57
2019-03-06T20:30:03.252Z,68.27
2019-03-06T20:32:33.169Z,66.20
2019-03-06T20:35:06.607Z,50.20
2019-03-06T20:37:35.494Z,55.73
2019-03-06T20:40:09.368Z,59.90
2019-03-06T20:42:41.947Z,63.27
2019-03-06T20:45:24.082Z,48.43
2019-03-06T20:47:52.841Z,58.47
2019-03-06T20:50:29.895Z,63.97
2019-03-06T20:53:00.110Z,53.83
2019-03-06T20:55:28.946Z,38.67
2019-03-06T20:57:58.177Z,39.43
2019-03-06T21:00:30.271Z,61.23
2019-03-06T21:02:59.137Z,63.03
2019-03-06T21:05:28.197Z,43.17
2019-03-06T21:08:18.544Z,57.97
2019-03-06T21:11:03.559Z,48.00
2019-03-06T21:16:46.211Z,45.20
2019-03-06T21:19:27.150Z,61.97
2019-03-06T21:22:16.821Z,63.43
2019-03-06T21:25:27.470Z,32.70
2019-03-06T21:29:21.177Z,39.13
2019-03-06T21:34:08.938Z,53.10
2019-03-06T21:40:04.371Z,50.97
2019-03-06T21:42:41.363Z,58.50
2019-03-06T21:45:33.732Z,42.67
2019-03-06T21:48:18.093Z,49.33
2019-03-06T21:51:00.377Z,57.63
2019-03-06T21:53:52.449Z,47.40
2019-03-06T21:56:34.839Z,52.90
2019-03-06T21:59:30.201Z,64.33
2019-03-06T22:01:55.107Z,35.00
2019-03-06T22:04:48.439Z,57.23
2019-03-06T22:07:41.948Z,52.87
2019-03-06T22:10:38.400Z,57.33
2019-03-06T22:13:08.620Z,55.67
2019-03-06T22:15:58.348Z,68.03
2019-03-06T22:18:33.122Z,30.77
2019-03-06T22:21:27.453Z,23.67
2019-03-06T22:23:50.760Z,45.50
2019-03-06T22:26:42.924Z,56.87
2019-03-06T22:29:18.148Z,39.87
2019-03-06T22:32:00.319Z,37.90
2019-03-06T22:34:30.653Z,46.90
2019-03-06T22:37:23.868Z,56.83
2019-03-06T22:39:55.562Z,51.80
2019-03-06T22:42:34.433Z,46.33
2019-03-06T22:45:15.980Z,53.47
2019-03-06T22:48:05.708Z,48.27
2019-03-06T22:53:28.259Z,54.43
2019-03-06T22:56:07.381Z,31.63
2019-03-06T22:58:43.015Z,47.47
2019-03-06T23:01:36.177Z,43.40
2019-03-06T23:04:26.650Z,45.57
2019-03-06T23:06:52.704Z,47.23
2019-03-06T23:09:33.184Z,45.93
2019-03-06T23:12:06.447Z,43.70
2019-03-06T23:14:57.799Z,47.30
2019-03-06T23:17:38.699Z,38.13
2019-03-06T23:23:13.635Z,41.07
2019-03-06T23:28:44.227Z,47.33
2019-03-06T23:31:25.487Z,45.93
2019-03-06T23:34:20.341Z,44.30
2019-03-06T23:36:57.011Z,43.27
2019-03-06T23:39:36.354Z,43.23
2019-03-06T23:42:21.495Z,41.20
2019-03-06T23:45:07.719Z,37.83
2019-03-06T23:47:42.218Z,45.80
2019-03-06T23:50:21.522Z,41.60
2019-03-06T23:53:05.210Z,41.57
